Time;durP1;ratioP1;P1;durP2;ratioP2;P2;SDS_P1;SDS_P2;PMS_P1;PMS_P2;Temp;Humidity;BMP_temperature;BMP_pressure;BME280_temperature;BME280_humidity;BME280_pressure;Samples;Min_cycle;Max_cycle;Signal;HPM_P1;HPM_P2
2023/08/04 00:02:18;;;;;;;8.83;4.10;;;;;;;;;;5033766;28;20228;-55
2023/08/04 00:04:46;;;;;;;7.33;4.17;;;;;;;;;;5033313;28;20225;-56
2023/08/04 00:07:12;;;;;;;9.47;4.27;;;;;;;;;;5033517;28;20524;-55
2023/08/04 00:09:39;;;;;;;7.50;4.90;;;;;;;;;;5033260;28;20671;-55
2023/08/04 00:12:05;;;;;;;12.17;6.50;;;;;;;;;;5033461;28;20205;-55
2023/08/04 00:14:31;;;;;;;9.33;4.50;;;;;;;;;;5033462;28;20556;-55
2023/08/04 00:16:57;;;;;;;11.87;4.53;;;;;;;;;;5032775;28;20201;-56
2023/08/04 00:19:23;;;;;;;8.20;4.23;;;;;;;;;;5033141;28;20200;-56
2023/08/04 00:21:49;;;;;;;8.67;4.43;;;;;;;;;;5032881;28;20262;-57
2023/08/04 00:24:15;;;;;;;10.43;4.33;;;;;;;;;;5033195;28;20668;-56
2023/08/04 00:26:43;;;;;;;12.23;4.37;;;;;;;;;;5033028;28;20224;-59
2023/08/04 00:29:09;;;;;;;8.73;3.93;;;;;;;;;;5032642;28;20300;-55
2023/08/04 00:31:35;;;;;;;8.43;4.40;;;;;;;;;;5033001;28;20684;-56
2023/08/04 00:34:01;;;;;;;9.00;4.30;;;;;;;;;;5032854;28;20200;-56
2023/08/04 00:36:27;;;;;;;8.80;3.90;;;;;;;;;;5032979;28;20209;-54
2023/08/04 00:38:53;;;;;;;9.67;4.40;;;;;;;;;;5032779;28;20276;-55
2023/08/04 00:41:19;;;;;;;10.47;4.10;;;;;;;;;;5032794;28;20637;-55
2023/08/04 00:43:46;;;;;;;12.77;4.37;;;;;;;;;;5032930;28;20305;-54
2023/08/04 00:46:13;;;;;;;9.93;4.33;;;;;;;;;;5032733;28;20231;-53
2023/08/04 00:48:39;;;;;;;6.77;4.53;;;;;;;;;;5032634;28;20197;-54
2023/08/04 00:51:05;;;;;;;7.50;4.10;;;;;;;;;;5032920;28;20272;-54
2023/08/04 00:53:31;;;;;;;7.10;4.33;;;;;;;;;;5030378;28;20204;-54
2023/08/04 00:55:57;;;;;;;11.00;4.37;;;;;;;;;;5028278;28;20193;-55
2023/08/04 00:58:23;;;;;;;10.60;4.50;;;;;;;;;;5031348;28;20208;-54
2023/08/04 01:00:51;;;;;;;10.50;4.20;;;;;;;;;;5032760;28;20253;-55
2023/08/04 01:03:17;;;;;;;8.63;4.33;;;;;;;;;;5032295;28;20205;-55
2023/08/04 01:05:47;;;;;;;7.63;4.10;;;;;;;;;;5032305;28;20197;-55
2023/08/04 01:08:15;;;;;;;11.77;4.17;;;;;;;;;;5032124;28;20205;-53
2023/08/04 01:10:44;;;;;;;7.17;3.90;;;;;;;;;;5032200;28;20193;-54
2023/08/04 01:13:12;;;;;;;14.93;4.50;;;;;;;;;;5032125;28;20265;-53
2023/08/04 01:15:38;;;;;;;12.70;4.73;;;;;;;;;;5032239;28;20189;-54
2023/08/04 01:18:05;;;;;;;9.33;4.90;;;;;;;;;;5032168;28;20239;-53
2023/08/04 01:20:31;;;;;;;9.60;4.00;;;;;;;;;;5032559;28;20255;-54
2023/08/04 01:22:59;;;;;;;7.63;3.80;;;;;;;;;;5031965;28;20207;-53
2023/08/04 01:25:27;;;;;;;8.17;4.33;;;;;;;;;;5031924;28;20304;-53
2023/08/04 01:27:55;;;;;;;9.90;4.07;;;;;;;;;;5031805;28;20235;-54
2023/08/04 01:30:23;;;;;;;12.87;4.73;;;;;;;;;;5031904;28;20229;-53
2023/08/04 01:32:49;;;;;;;11.23;4.63;;;;;;;;;;5031998;28;20200;-53
2023/08/04 01:35:15;;;;;;;15.83;5.43;;;;;;;;;;5032194;28;20216;-54
2023/08/04 01:37:43;;;;;;;10.03;4.67;;;;;;;;;;5031786;28;20193;-54
2023/08/04 01:40:11;;;;;;;13.57;5.13;;;;;;;;;;5031927;28;20193;-56
2023/08/04 01:42:37;;;;;;;7.83;4.87;;;;;;;;;;5031975;28;20259;-54
2023/08/04 01:45:03;;;;;;;10.00;4.10;;;;;;;;;;5032066;28;20199;-53
2023/08/04 01:47:30;;;;;;;11.93;4.17;;;;;;;;;;5031857;28;20256;-55
2023/08/04 01:49:56;;;;;;;8.53;4.70;;;;;;;;;;5031766;28;20212;-55
2023/08/04 01:52:22;;;;;;;10.77;5.30;;;;;;;;;;5031946;28;20291;-55
2023/08/04 01:54:48;;;;;;;9.33;4.97;;;;;;;;;;5031778;28;20300;-55
2023/08/04 01:57:16;;;;;;;9.83;4.90;;;;;;;;;;5031880;28;20222;-55
2023/08/04 01:59:42;;;;;;;5.33;4.20;;;;;;;;;;5031554;28;20927;-53
2023/08/04 02:02:08;;;;;;;9.33;4.30;;;;;;;;;;5031523;28;20267;-52
2023/08/04 02:04:34;;;;;;;6.70;4.30;;;;;;;;;;5031799;28;20237;-53
2023/08/04 02:07:00;;;;;;;11.40;4.73;;;;;;;;;;5031529;28;20226;-55
2023/08/04 02:09:29;;;;;;;9.83;4.83;;;;;;;;;;5030994;28;21099;-55
2023/08/04 02:11:55;;;;;;;9.17;4.60;;;;;;;;;;5031302;28;20204;-55
2023/08/04 02:14:23;;;;;;;10.03;4.83;;;;;;;;;;5031745;28;20275;-52
2023/08/04 02:16:49;;;;;;;10.57;5.63;;;;;;;;;;5031337;28;20205;-54
2023/08/04 02:19:15;;;;;;;9.50;6.70;;;;;;;;;;5029582;28;20193;-53
2023/08/04 02:21:41;;;;;;;9.43;4.83;;;;;;;;;;5031207;28;20714;-53
2023/08/04 02:24:07;;;;;;;9.27;5.13;;;;;;;;;;5031433;28;20209;-53
2023/08/04 02:26:33;;;;;;;8.80;4.10;;;;;;;;;;5031517;28;20257;-52
2023/08/04 02:28:59;;;;;;;9.33;5.10;;;;;;;;;;5031264;28;20220;-53
2023/08/04 02:31:28;;;;;;;9.40;4.47;;;;;;;;;;5030999;28;20233;-53
2023/08/04 02:33:54;;;;;;;9.13;5.03;;;;;;;;;;5030963;28;20267;-54
2023/08/04 02:36:21;;;;;;;12.10;5.03;;;;;;;;;;5031344;28;20189;-53
2023/08/04 02:38:47;;;;;;;9.57;4.50;;;;;;;;;;5031376;28;20238;-54
2023/08/04 02:41:13;;;;;;;11.53;5.10;;;;;;;;;;5030767;28;20205;-54
2023/08/04 02:43:39;;;;;;;8.93;4.80;;;;;;;;;;5031298;28;20212;-54
2023/08/04 02:46:05;;;;;;;9.80;4.90;;;;;;;;;;5031065;28;20221;-54
2023/08/04 02:48:33;;;;;;;10.27;4.73;;;;;;;;;;5030754;28;20204;-54
2023/08/04 02:51:01;;;;;;;6.87;4.73;;;;;;;;;;5030687;28;20197;-55
2023/08/04 02:53:27;;;;;;;8.80;4.80;;;;;;;;;;5030864;28;20278;-55
2023/08/04 02:55:53;;;;;;;9.20;4.67;;;;;;;;;;5030666;28;20655;-54
2023/08/04 02:58:19;;;;;;;7.23;4.93;;;;;;;;;;5030742;28;20251;-55
2023/08/04 03:00:45;;;;;;;12.27;5.03;;;;;;;;;;5030472;28;20229;-54
2023/08/04 03:03:11;;;;;;;11.33;5.10;;;;;;;;;;5030593;28;20215;-55
2023/08/04 03:05:38;;;;;;;11.80;5.23;;;;;;;;;;5030627;28;20196;-54
2023/08/04 03:08:04;;;;;;;6.27;4.80;;;;;;;;;;5030716;28;20321;-55
2023/08/04 03:10:30;;;;;;;8.73;5.03;;;;;;;;;;5030604;28;20201;-55
2023/08/04 03:12:56;;;;;;;8.60;4.03;;;;;;;;;;5030339;28;20192;-54
2023/08/04 03:15:22;;;;;;;12.60;5.43;;;;;;;;;;5030689;28;20207;-55
2023/08/04 03:17:50;;;;;;;10.20;5.33;;;;;;;;;;5030661;28;20232;-55
2023/08/04 03:20:16;;;;;;;10.80;4.90;;;;;;;;;;5030409;28;20204;-54
2023/08/04 03:22:43;;;;;;;7.93;4.73;;;;;;;;;;5032780;28;20240;-54
2023/08/04 03:25:09;;;;;;;10.63;5.50;;;;;;;;;;5034571;28;20203;-55
2023/08/04 03:27:36;;;;;;;7.20;4.60;;;;;;;;;;5034461;28;20259;-54
2023/08/04 03:30:02;;;;;;;6.13;4.30;;;;;;;;;;5034502;28;20307;-55
2023/08/04 03:32:28;;;;;;;11.20;4.70;;;;;;;;;;5034424;28;20236;-55
2023/08/04 03:34:54;;;;;;;15.07;5.10;;;;;;;;;;5034307;28;20209;-54
2023/08/04 03:37:20;;;;;;;7.33;4.70;;;;;;;;;;5034483;28;20200;-55
2023/08/04 03:39:48;;;;;;;6.43;4.87;;;;;;;;;;5034320;28;20201;-54
2023/08/04 03:42:14;;;;;;;11.33;5.40;;;;;;;;;;5034278;28;20200;-54
2023/08/04 03:44:40;;;;;;;10.00;4.93;;;;;;;;;;5034130;28;20553;-55
2023/08/04 03:47:06;;;;;;;7.00;4.80;;;;;;;;;;5034458;28;20235;-55
2023/08/04 03:49:32;;;;;;;9.97;5.33;;;;;;;;;;5033983;28;20205;-54
2023/08/04 03:51:58;;;;;;;11.77;5.20;;;;;;;;;;5034066;28;20197;-55
2023/08/04 03:54:24;;;;;;;8.33;5.40;;;;;;;;;;5034245;28;20216;-55
2023/08/04 03:56:51;;;;;;;8.23;5.40;;;;;;;;;;5034068;28;20197;-55
2023/08/04 03:59:17;;;;;;;8.03;5.67;;;;;;;;;;5033991;28;20228;-55
2023/08/04 04:01:44;;;;;;;10.60;6.30;;;;;;;;;;5033608;28;20205;-54
2023/08/04 04:04:10;;;;;;;11.80;6.80;;;;;;;;;;5033692;28;20189;-55
2023/08/04 04:06:36;;;;;;;12.53;6.30;;;;;;;;;;5033712;28;20233;-55
2023/08/04 04:09:03;;;;;;;11.37;5.83;;;;;;;;;;5033278;28;20221;-55
2023/08/04 04:11:29;;;;;;;8.20;4.87;;;;;;;;;;5033749;28;20288;-55
2023/08/04 04:13:57;;;;;;;8.67;5.30;;;;;;;;;;5033410;28;20201;-54
2023/08/04 04:16:26;;;;;;;8.77;5.33;;;;;;;;;;5033461;28;20197;-55
2023/08/04 04:18:52;;;;;;;8.20;5.50;;;;;;;;;;5033529;28;20208;-55
2023/08/04 04:21:18;;;;;;;8.60;5.43;;;;;;;;;;5033673;28;20197;-54
2023/08/04 04:23:44;;;;;;;12.13;5.23;;;;;;;;;;5033667;28;20280;-54
2023/08/04 04:26:10;;;;;;;10.83;5.73;;;;;;;;;;5033323;28;20291;-55
2023/08/04 04:28:36;;;;;;;10.13;4.97;;;;;;;;;;5033463;28;20573;-54
2023/08/04 04:31:04;;;;;;;8.47;5.40;;;;;;;;;;5033271;28;20243;-55
2023/08/04 04:33:30;;;;;;;6.47;5.10;;;;;;;;;;5033348;28;20234;-54
2023/08/04 04:35:56;;;;;;;8.20;4.90;;;;;;;;;;5033142;28;20247;-55
2023/08/04 04:38:28;;;;;;;8.33;5.30;;;;;;;;;;5033210;28;20236;-55
2023/08/04 04:40:55;;;;;;;7.60;4.70;;;;;;;;;;5032899;28;20201;-55
2023/08/04 04:43:21;;;;;;;10.97;4.87;;;;;;;;;;5033305;28;20208;-54
2023/08/04 04:45:48;;;;;;;6.40;4.60;;;;;;;;;;5032965;28;20244;-54
2023/08/04 04:48:16;;;;;;;6.73;4.43;;;;;;;;;;5032946;28;20228;-54
2023/08/04 04:50:42;;;;;;;9.63;4.40;;;;;;;;;;5033012;28;20986;-55
2023/08/04 04:53:08;;;;;;;10.63;4.97;;;;;;;;;;5032815;28;20233;-54
2023/08/04 04:55:34;;;;;;;6.90;4.10;;;;;;;;;;5033096;28;20284;-54
2023/08/04 04:58:00;;;;;;;6.70;3.97;;;;;;;;;;5032810;28;20209;-54
2023/08/04 05:00:26;;;;;;;7.03;4.20;;;;;;;;;;5032872;28;20201;-55
2023/08/04 05:02:52;;;;;;;10.03;4.50;;;;;;;;;;5032894;28;20201;-54
2023/08/04 05:05:19;;;;;;;5.83;3.93;;;;;;;;;;5032610;28;20197;-55
2023/08/04 05:07:45;;;;;;;9.17;4.13;;;;;;;;;;5032606;28;20217;-54
2023/08/04 05:10:11;;;;;;;14.47;4.40;;;;;;;;;;5032518;28;20717;-54
2023/08/04 05:12:37;;;;;;;5.10;4.00;;;;;;;;;;5032740;28;20201;-55
2023/08/04 05:15:03;;;;;;;6.40;4.23;;;;;;;;;;5032702;28;20204;-54
2023/08/04 05:17:29;;;;;;;9.83;3.87;;;;;;;;;;5032576;28;20189;-54
2023/08/04 05:19:55;;;;;;;8.90;4.40;;;;;;;;;;5032332;28;20237;-53
2023/08/04 05:22:23;;;;;;;6.97;4.30;;;;;;;;;;5032817;28;20273;-53
2023/08/04 05:24:49;;;;;;;6.97;3.97;;;;;;;;;;5032574;28;20283;-54
2023/08/04 05:27:15;;;;;;;9.10;5.07;;;;;;;;;;5032186;28;20774;-54
2023/08/04 05:29:41;;;;;;;10.17;5.03;;;;;;;;;;5032404;28;20217;-55
2023/08/04 05:32:07;;;;;;;10.53;4.60;;;;;;;;;;5032133;28;20233;-54
2023/08/04 05:34:33;;;;;;;8.57;4.27;;;;;;;;;;5032516;28;20205;-54
2023/08/04 05:36:59;;;;;;;8.63;4.30;;;;;;;;;;5032070;28;20197;-55
2023/08/04 05:39:27;;;;;;;6.77;3.90;;;;;;;;;;5032034;28;20195;-53
2023/08/04 05:41:53;;;;;;;6.70;4.20;;;;;;;;;;5032185;28;20208;-54
2023/08/04 05:44:22;;;;;;;8.70;4.80;;;;;;;;;;5031820;28;20208;-55
2023/08/04 05:46:48;;;;;;;10.33;4.57;;;;;;;;;;5032147;28;20221;-55
2023/08/04 05:49:14;;;;;;;9.57;3.87;;;;;;;;;;5031780;28;20270;-55
2023/08/04 05:51:40;;;;;;;10.67;4.90;;;;;;;;;;5031782;28;20208;-54
2023/08/04 05:54:06;;;;;;;7.03;4.33;;;;;;;;;;5031691;28;20263;-52
2023/08/04 05:56:35;;;;;;;10.40;4.10;;;;;;;;;;5031956;28;20200;-55
2023/08/04 05:59:01;;;;;;;8.23;4.10;;;;;;;;;;5031809;28;20201;-52
2023/08/04 06:01:27;;;;;;;6.13;3.70;;;;;;;;;;5031833;28;20283;-52
2023/08/04 06:03:54;;;;;;;5.23;3.97;;;;;;;;;;5031737;28;20207;-54
2023/08/04 06:06:20;;;;;;;9.10;4.27;;;;;;;;;;5031485;28;20660;-53
2023/08/04 06:08:46;;;;;;;4.83;3.67;;;;;;;;;;5031465;28;20189;-53
2023/08/04 06:11:12;;;;;;;6.77;4.00;;;;;;;;;;5031683;28;20921;-54
2023/08/04 06:13:40;;;;;;;6.37;4.03;;;;;;;;;;5031403;28;20292;-53
2023/08/04 06:16:06;;;;;;;9.73;4.70;;;;;;;;;;5031519;28;20208;-53
2023/08/04 06:18:32;;;;;;;4.43;3.23;;;;;;;;;;5031589;28;20193;-53
2023/08/04 06:20:58;;;;;;;7.20;4.07;;;;;;;;;;5031184;28;20340;-53
2023/08/04 06:23:24;;;;;;;6.13;3.80;;;;;;;;;;5031196;28;20204;-53
2023/08/04 06:25:50;;;;;;;7.23;3.77;;;;;;;;;;5031303;28;20251;-53
2023/08/04 06:28:16;;;;;;;9.40;3.97;;;;;;;;;;5030880;28;20225;-53
2023/08/04 06:30:43;;;;;;;9.63;4.13;;;;;;;;;;5030993;28;20244;-53
2023/08/04 06:33:09;;;;;;;9.30;4.73;;;;;;;;;;5030855;28;20706;-53
2023/08/04 06:35:40;;;;;;;4.90;3.67;;;;;;;;;;5031307;28;20196;-53
2023/08/04 06:38:06;;;;;;;5.73;3.97;;;;;;;;;;5031192;28;20570;-53
2023/08/04 06:40:32;;;;;;;7.37;4.20;;;;;;;;;;5031000;28;20217;-53
2023/08/04 06:42:59;;;;;;;7.23;3.50;;;;;;;;;;5030595;28;20670;-52
2023/08/04 06:45:27;;;;;;;8.73;4.10;;;;;;;;;;5030831;28;20204;-54
2023/08/04 06:47:55;;;;;;;6.40;3.93;;;;;;;;;;5030602;28;20316;-54
2023/08/04 06:50:21;;;;;;;7.23;3.77;;;;;;;;;;5030966;28;20291;-53
2023/08/04 06:52:48;;;;;;;4.07;3.40;;;;;;;;;;5030919;28;20685;-53
2023/08/04 06:55:14;;;;;;;9.20;3.53;;;;;;;;;;5030746;28;20204;-54
2023/08/04 06:57:40;;;;;;;8.80;3.27;;;;;;;;;;5029824;28;20617;-54
2023/08/04 07:00:09;;;;;;;5.80;3.33;;;;;;;;;;5028806;28;20221;-53
2023/08/04 07:02:35;;;;;;;5.63;3.40;;;;;;;;;;5028656;28;20216;-53
2023/08/04 07:05:03;;;;;;;5.80;3.47;;;;;;;;;;5030683;28;20250;-54
2023/08/04 07:07:29;;;;;;;6.43;3.80;;;;;;;;;;5030803;28;20255;-54
2023/08/04 07:09:55;;;;;;;6.37;3.07;;;;;;;;;;5030373;28;20197;-54
2023/08/04 07:12:21;;;;;;;9.27;3.33;;;;;;;;;;5030617;28;20204;-54
2023/08/04 07:14:47;;;;;;;5.40;3.00;;;;;;;;;;5030664;28;20558;-54
2023/08/04 07:17:13;;;;;;;3.67;2.47;;;;;;;;;;5030203;28;20199;-53
2023/08/04 07:19:39;;;;;;;7.07;2.83;;;;;;;;;;5030395;28;20203;-53
2023/08/04 07:22:07;;;;;;;6.13;2.77;;;;;;;;;;5030448;28;20229;-53
2023/08/04 07:24:33;;;;;;;4.93;2.50;;;;;;;;;;5030396;28;20747;-53
2023/08/04 07:26:59;;;;;;;3.93;2.67;;;;;;;;;;5030025;28;20263;-53
2023/08/04 07:29:25;;;;;;;6.17;2.93;;;;;;;;;;5030463;28;20241;-54
2023/08/04 07:31:51;;;;;;;8.67;3.30;;;;;;;;;;5030259;28;20288;-53
2023/08/04 07:34:17;;;;;;;5.37;3.30;;;;;;;;;;5030399;28;20249;-54
2023/08/04 07:36:43;;;;;;;8.00;3.67;;;;;;;;;;5030046;28;20266;-53
2023/08/04 07:39:11;;;;;;;5.10;3.40;;;;;;;;;;5030168;28;20217;-54
2023/08/04 07:41:37;;;;;;;3.33;3.00;;;;;;;;;;5030247;28;20258;-54
2023/08/04 07:44:03;;;;;;;4.00;3.30;;;;;;;;;;5030243;28;20203;-53
2023/08/04 07:46:29;;;;;;;6.33;3.20;;;;;;;;;;5030055;28;20280;-53
2023/08/04 07:48:55;;;;;;;6.07;3.17;;;;;;;;;;5029957;28;20204;-53
2023/08/04 07:51:22;;;;;;;5.27;2.70;;;;;;;;;;5030394;28;20197;-54
2023/08/04 07:53:48;;;;;;;4.23;2.27;;;;;;;;;;5030249;28;20228;-53
2023/08/04 07:56:16;;;;;;;3.70;2.50;;;;;;;;;;5030085;28;20207;-54
2023/08/04 07:58:42;;;;;;;5.93;2.67;;;;;;;;;;5029938;28;20571;-54
2023/08/04 08:01:08;;;;;;;4.77;2.40;;;;;;;;;;5029597;28;20561;-54
2023/08/04 08:03:35;;;;;;;6.13;2.20;;;;;;;;;;5030219;28;20280;-54
2023/08/04 08:06:01;;;;;;;4.20;2.27;;;;;;;;;;5030005;28;20197;-53
2023/08/04 08:08:27;;;;;;;3.27;2.27;;;;;;;;;;5031491;28;20316;-54
2023/08/04 08:10:53;;;;;;;3.00;2.30;;;;;;;;;;5033598;28;20615;-54
2023/08/04 08:13:21;;;;;;;5.80;2.40;;;;;;;;;;5033688;28;20197;-53
2023/08/04 08:15:47;;;;;;;3.83;2.30;;;;;;;;;;5033719;28;20212;-53
2023/08/04 08:18:14;;;;;;;4.73;2.27;;;;;;;;;;5033591;28;20197;-53
2023/08/04 08:20:41;;;;;;;5.77;2.13;;;;;;;;;;5033345;28;20199;-53
2023/08/04 08:23:07;;;;;;;8.33;2.30;;;;;;;;;;5033681;28;20230;-53
2023/08/04 08:25:34;;;;;;;4.50;2.20;;;;;;;;;;5033639;28;20192;-54
2023/08/04 08:28:00;;;;;;;3.17;1.90;;;;;;;;;;5033054;28;20225;-53
2023/08/04 08:30:27;;;;;;;3.90;1.90;;;;;;;;;;5033163;28;20686;-54
2023/08/04 08:32:53;;;;;;;3.77;2.00;;;;;;;;;;5033130;28;20614;-55
2023/08/04 08:35:19;;;;;;;4.83;1.73;;;;;;;;;;5033341;28;20219;-54
2023/08/04 08:37:45;;;;;;;2.30;1.63;;;;;;;;;;5033088;28;20663;-55
2023/08/04 08:40:12;;;;;;;2.87;2.00;;;;;;;;;;5033096;28;20295;-60
2023/08/04 08:42:38;;;;;;;4.13;1.90;;;;;;;;;;5033396;28;20192;-55
2023/08/04 08:45:05;;;;;;;3.83;1.90;;;;;;;;;;5033285;28;20227;-55
2023/08/04 08:47:34;;;;;;;4.70;2.20;;;;;;;;;;5033071;28;20690;-55
2023/08/04 08:50:01;;;;;;;2.93;1.83;;;;;;;;;;5033051;28;20222;-56
2023/08/04 08:52:29;;;;;;;5.27;1.83;;;;;;;;;;5032989;28;20205;-53
2023/08/04 08:54:56;;;;;;;4.13;1.93;;;;;;;;;;5032842;28;20204;-53
2023/08/04 08:57:23;;;;;;;3.43;1.63;;;;;;;;;;5032771;28;20184;-53
2023/08/04 08:59:49;;;;;;;3.67;1.93;;;;;;;;;;5032964;28;20197;-53
2023/08/04 09:08:09;;;;;;;2.80;1.63;;;;;;;;;;5006275;28;20320;-52
2023/08/04 09:10:37;;;;;;;2.43;1.43;;;;;;;;;;5011144;28;20244;-52
2023/08/04 09:13:07;;;;;;;5.17;1.67;;;;;;;;;;5013179;28;20201;-52
2023/08/04 09:15:34;;;;;;;4.43;1.80;;;;;;;;;;5013346;28;20205;-52
2023/08/04 09:18:00;;;;;;;4.50;1.90;;;;;;;;;;5013090;28;20686;-52
2023/08/04 09:20:27;;;;;;;2.50;1.80;;;;;;;;;;5012586;28;20218;-53
2023/08/04 09:22:54;;;;;;;2.93;1.67;;;;;;;;;;5012961;28;20199;-53
2023/08/04 09:25:21;;;;;;;2.03;1.37;;;;;;;;;;5012841;28;20206;-52
2023/08/04 09:27:50;;;;;;;3.60;1.60;;;;;;;;;;5011011;28;20241;-51
2023/08/04 09:30:17;;;;;;;2.50;1.60;;;;;;;;;;5010824;28;20202;-53
2023/08/04 09:32:46;;;;;;;1.97;1.40;;;;;;;;;;5012693;28;20201;-52
2023/08/04 09:35:12;;;;;;;4.70;4.30;;;;;;;;;;5012547;28;20190;-52
2023/08/04 09:37:39;;;;;;;2.80;1.57;;;;;;;;;;5012654;28;20285;-51
2023/08/04 09:40:12;;;;;;;2.90;1.40;;;;;;;;;;5012687;28;20193;-54
2023/08/04 09:42:39;;;;;;;2.40;1.70;;;;;;;;;;5012395;28;20226;-52
2023/08/04 09:45:06;;;;;;;3.17;1.40;;;;;;;;;;5012230;28;20473;-54
2023/08/04 09:47:32;;;;;;;3.87;2.10;;;;;;;;;;5012161;28;20231;-58
2023/08/04 09:49:58;;;;;;;5.13;1.60;;;;;;;;;;5012302;28;20232;-53
2023/08/04 09:52:27;;;;;;;2.83;1.60;;;;;;;;;;5011592;28;20209;-52
2023/08/04 09:54:53;;;;;;;3.67;1.77;;;;;;;;;;5011565;28;20240;-53
2023/08/04 09:57:22;;;;;;;3.30;1.80;;;;;;;;;;5012229;28;20194;-52
2023/08/04 09:59:49;;;;;;;4.17;1.70;;;;;;;;;;5004127;28;20281;-52
2023/08/04 10:02:18;;;;;;;4.53;2.00;;;;;;;;;;5011298;28;20746;-52
2023/08/04 10:04:45;;;;;;;4.20;3.07;;;;;;;;;;5011887;28;20259;-55
2023/08/04 10:07:11;;;;;;;2.73;1.60;;;;;;;;;;5011639;28;20867;-53
2023/08/04 10:09:37;;;;;;;2.20;1.77;;;;;;;;;;5011847;28;20201;-53
2023/08/04 10:12:03;;;;;;;3.67;1.97;;;;;;;;;;5011522;28;20255;-54
2023/08/04 10:14:29;;;;;;;2.40;1.80;;;;;;;;;;4994221;28;20248;-52
2023/08/04 10:16:57;;;;;;;2.37;1.60;;;;;;;;;;5011431;28;20233;-53
2023/08/04 10:19:23;;;;;;;3.33;1.80;;;;;;;;;;5011505;28;20203;-52
2023/08/04 10:21:50;;;;;;;4.13;1.87;;;;;;;;;;5011094;28;20221;-54
2023/08/04 10:24:19;;;;;;;2.30;1.80;;;;;;;;;;5011434;28;20214;-54
2023/08/04 10:26:47;;;;;;;2.40;1.80;;;;;;;;;;5011220;28;20231;-52
2023/08/04 10:29:13;;;;;;;2.87;2.07;;;;;;;;;;5011247;28;20240;-53
2023/08/04 10:31:51;;;;;;;2.60;1.60;;;;;;;;;;5010813;28;20197;-53
2023/08/04 10:34:28;;;;;;;14.17;12.67;;;;;;;;;;5011099;28;20693;-53
2023/08/04 10:37:01;;;;;;;3.93;1.80;;;;;;;;;;5010943;28;20244;-53
2023/08/04 10:39:28;;;;;;;2.57;1.60;;;;;;;;;;5011266;28;20272;-52
2023/08/04 10:41:55;;;;;;;2.73;2.00;;;;;;;;;;5010862;28;20194;-53
2023/08/04 10:44:24;;;;;;;2.90;1.80;;;;;;;;;;5010995;28;20579;-53
2023/08/04 10:46:50;;;;;;;2.90;1.80;;;;;;;;;;5010738;28;20283;-52
2023/08/04 10:49:16;;;;;;;2.83;2.00;;;;;;;;;;5011153;28;20559;-54
2023/08/04 10:51:45;;;;;;;3.00;1.90;;;;;;;;;;4993420;28;20210;-54
2023/08/04 10:54:11;;;;;;;3.80;1.60;;;;;;;;;;5011043;28;20763;-54
2023/08/04 10:56:38;;;;;;;2.03;1.80;;;;;;;;;;5010843;28;20273;-54
2023/08/04 10:59:08;;;;;;;2.67;1.43;;;;;;;;;;5010883;28;20200;-54
2023/08/04 11:01:34;;;;;;;2.53;2.33;;;;;;;;;;5010689;28;20277;-52
2023/08/04 11:04:00;;;;;;;2.30;1.60;;;;;;;;;;5010437;28;20607;-52
2023/08/04 11:06:26;;;;;;;1.93;1.50;;;;;;;;;;5010758;28;20233;-52
2023/08/04 11:08:53;;;;;;;1.93;1.73;;;;;;;;;;5010297;28;20208;-52
2023/08/04 11:11:21;;;;;;;1.70;1.60;;;;;;;;;;5010267;28;20202;-52
2023/08/04 11:13:47;;;;;;;1.70;1.60;;;;;;;;;;5010527;28;20201;-52
2023/08/04 11:16:16;;;;;;;2.10;1.90;;;;;;;;;;5010914;28;20205;-52
2023/08/04 11:18:42;;;;;;;2.33;1.70;;;;;;;;;;4993271;28;20190;-52
2023/08/04 11:21:08;;;;;;;2.03;1.83;;;;;;;;;;5010386;28;20721;-53
2023/08/04 11:23:34;;;;;;;3.73;1.90;;;;;;;;;;5010456;28;20659;-53
2023/08/04 11:26:02;;;;;;;3.87;1.90;;;;;;;;;;5010173;28;20201;-53
2023/08/04 11:28:29;;;;;;;2.03;1.80;;;;;;;;;;5010644;28;20301;-53
2023/08/04 11:31:04;;;;;;;2.37;2.00;;;;;;;;;;5010538;28;20205;-53
2023/08/04 11:33:30;;;;;;;2.43;2.00;;;;;;;;;;5010322;28;20682;-53
2023/08/04 11:35:56;;;;;;;1.90;1.60;;;;;;;;;;5010358;28;20206;-53
2023/08/04 11:38:22;;;;;;;1.97;1.60;;;;;;;;;;5009995;28;20299;-53
2023/08/04 11:40:55;;;;;;;1.60;1.50;;;;;;;;;;5009925;28;20202;-53
2023/08/04 11:43:23;;;;;;;1.90;1.50;;;;;;;;;;5011929;28;20195;-53
2023/08/04 11:45:49;;;;;;;4.13;3.00;;;;;;;;;;5014105;28;20926;-53
2023/08/04 11:48:15;;;;;;;1.90;1.73;;;;;;;;;;5013860;28;20223;-53
2023/08/04 11:50:41;;;;;;;1.97;1.70;;;;;;;;;;5014248;28;20209;-53
2023/08/04 11:53:07;;;;;;;1.73;1.47;;;;;;;;;;5014176;28;20210;-53
2023/08/04 11:55:33;;;;;;;2.67;1.60;;;;;;;;;;5014168;28;20199;-53
2023/08/04 11:57:59;;;;;;;1.70;1.40;;;;;;;;;;5013958;28;20207;-54
2023/08/04 12:00:36;;;;;;;1.55;1.45;;;;;;;;;;5013969;28;20205;-53
2023/08/04 12:03:03;;;;;;;2.43;1.50;;;;;;;;;;5013524;28;20253;-54
2023/08/04 12:05:30;;;;;;;2.43;1.60;;;;;;;;;;5013779;28;20642;-55
2023/08/04 12:07:56;;;;;;;3.53;1.87;;;;;;;;;;5013659;28;20268;-54
2023/08/04 12:10:23;;;;;;;2.77;2.00;;;;;;;;;;5013617;28;20206;-54
2023/08/04 12:12:50;;;;;;;2.30;1.77;;;;;;;;;;5013645;28;20750;-54
2023/08/04 12:15:16;;;;;;;2.50;2.30;;;;;;;;;;5013571;28;20290;-54
2023/08/04 12:17:44;;;;;;;3.23;2.23;;;;;;;;;;5008838;28;20212;-54
2023/08/04 12:20:10;;;;;;;3.13;2.40;;;;;;;;;;5014471;28;20210;-54
2023/08/04 12:22:37;;;;;;;3.00;1.93;;;;;;;;;;5033313;28;20288;-54
2023/08/04 12:25:03;;;;;;;3.90;1.70;;;;;;;;;;5033122;28;20208;-54
2023/08/04 12:27:30;;;;;;;2.70;1.77;;;;;;;;;;5033021;28;20607;-54
2023/08/04 12:29:56;;;;;;;1.77;1.47;;;;;;;;;;5032849;28;20204;-53
2023/08/04 12:32:22;;;;;;;2.67;1.70;;;;;;;;;;5033232;28;20292;-53
2023/08/04 12:34:49;;;;;;;2.10;1.67;;;;;;;;;;5032807;28;20197;-53
2023/08/04 12:37:16;;;;;;;2.17;1.50;;;;;;;;;;5032942;28;20210;-53
2023/08/04 12:39:44;;;;;;;1.80;1.33;;;;;;;;;;5032990;28;20210;-53
2023/08/04 12:42:10;;;;;;;2.93;1.43;;;;;;;;;;5032795;28;20194;-53
2023/08/04 12:44:36;;;;;;;2.23;1.10;;;;;;;;;;5032905;28;20653;-53
2023/08/04 12:47:02;;;;;;;1.87;1.43;;;;;;;;;;5032598;28;20223;-54
2023/08/04 12:49:28;;;;;;;1.73;1.60;;;;;;;;;;5032909;28;20199;-53
2023/08/04 12:51:56;;;;;;;3.07;1.50;;;;;;;;;;5032658;28;20206;-53
2023/08/04 12:54:23;;;;;;;1.80;1.40;;;;;;;;;;5031208;28;20207;-54
2023/08/04 12:56:49;;;;;;;2.00;1.30;;;;;;;;;;5032549;28;20200;-53
2023/08/04 12:59:15;;;;;;;1.57;1.40;;;;;;;;;;5032997;28;20296;-53
2023/08/04 13:01:41;;;;;;;2.93;1.00;;;;;;;;;;5032229;28;20826;-53
2023/08/04 13:04:07;;;;;;;1.30;1.07;;;;;;;;;;5032072;28;20261;-52
2023/08/04 13:06:33;;;;;;;1.13;0.90;;;;;;;;;;5031914;28;20243;-53
2023/08/04 13:09:00;;;;;;;1.20;1.00;;;;;;;;;;5032383;28;20692;-53
2023/08/04 13:11:26;;;;;;;1.93;1.13;;;;;;;;;;5031918;28;20204;-53
2023/08/04 13:13:52;;;;;;;4.50;4.07;;;;;;;;;;5032384;28;20220;-53
2023/08/04 13:16:18;;;;;;;1.20;1.10;;;;;;;;;;5030408;28;20798;-53
2023/08/04 13:18:44;;;;;;;1.33;0.97;;;;;;;;;;5028935;28;20199;-53
2023/08/04 13:21:10;;;;;;;0.70;0.70;;;;;;;;;;5032240;28;20207;-54
2023/08/04 13:23:36;;;;;;;1.63;0.83;;;;;;;;;;5028993;28;20276;-52
2023/08/04 13:26:07;;;;;;;1.07;0.97;;;;;;;;;;5012313;28;20562;-53
2023/08/04 13:28:33;;;;;;;3.60;3.30;;;;;;;;;;5012206;28;20261;-53
2023/08/04 13:30:59;;;;;;;2.37;1.20;;;;;;;;;;5012243;28;20275;-53
2023/08/04 13:33:25;;;;;;;0.90;0.90;;;;;;;;;;5012352;28;20274;-53
2023/08/04 13:35:51;;;;;;;2.37;0.97;;;;;;;;;;5011902;28;20831;-52
2023/08/04 13:38:17;;;;;;;1.10;0.93;;;;;;;;;;5012004;28;20251;-54
2023/08/04 13:40:43;;;;;;;1.97;1.00;;;;;;;;;;5011943;28;20192;-60
2023/08/04 13:43:10;;;;;;;0.70;0.70;;;;;;;;;;5012087;28;20200;-60
2023/08/04 13:45:37;;;;;;;1.05;0.80;;;;;;;;;;5011778;28;21060;-57
2023/08/04 13:48:03;;;;;;;1.83;1.07;;;;;;;;;;5011624;28;20260;-57
2023/08/04 13:50:29;;;;;;;1.10;1.00;;;;;;;;;;5012011;28;20214;-58
2023/08/04 13:52:55;;;;;;;1.23;1.00;;;;;;;;;;5011779;28;20227;-62
2023/08/04 13:55:21;;;;;;;1.30;1.00;;;;;;;;;;5011743;28;20232;-57
2023/08/04 13:57:47;;;;;;;1.70;0.90;;;;;;;;;;5011553;28;20683;-57
2023/08/04 14:00:14;;;;;;;2.70;1.13;;;;;;;;;;5011885;28;20608;-57
2023/08/04 14:02:40;;;;;;;1.40;1.00;;;;;;;;;;5011124;28;20201;-57
2023/08/04 14:05:07;;;;;;;7.27;1.27;;;;;;;;;;5011073;28;20205;-57
2023/08/04 14:07:33;;;;;;;2.23;1.33;;;;;;;;;;5010815;28;20230;-57
2023/08/04 14:09:59;;;;;;;1.13;1.03;;;;;;;;;;5011451;28;20232;-57
2023/08/04 14:12:28;;;;;;;2.20;1.10;;;;;;;;;;5011411;28;20215;-57
2023/08/04 14:14:54;;;;;;;0.97;0.97;;;;;;;;;;5011292;28;20286;-57
2023/08/04 14:17:22;;;;;;;1.73;1.23;;;;;;;;;;5011526;28;20223;-57
2023/08/04 14:19:48;;;;;;;1.10;1.00;;;;;;;;;;5011372;28;20208;-57
2023/08/04 14:22:14;;;;;;;0.90;0.90;;;;;;;;;;5011564;28;20536;-57
2023/08/04 14:24:40;;;;;;;1.30;1.13;;;;;;;;;;5011577;28;20215;-57
2023/08/04 14:27:07;;;;;;;1.10;0.90;;;;;;;;;;5011093;28;20426;-57
2023/08/04 14:29:33;;;;;;;1.23;1.13;;;;;;;;;;5011255;28;20212;-57
2023/08/04 14:31:59;;;;;;;1.77;1.23;;;;;;;;;;5011227;28;20197;-56
2023/08/04 14:34:27;;;;;;;1.20;1.10;;;;;;;;;;5011467;28;20248;-56
2023/08/04 14:36:53;;;;;;;1.60;1.17;;;;;;;;;;5011234;28;20202;-56
2023/08/04 14:39:19;;;;;;;1.20;1.10;;;;;;;;;;5011426;28;20202;-56
2023/08/04 14:41:45;;;;;;;1.10;1.00;;;;;;;;;;5011354;28;20293;-56
2023/08/04 14:44:11;;;;;;;1.83;1.10;;;;;;;;;;5011071;28;20200;-56